sensor_id;sensor_type;location;lat;lon;timestamp;P1;durP1;ratioP1;P2;durP2;ratioP2
59492;SDS011;45497;43.996;22.876;2022-12-13T00:01:15;11.30;;;7.63;;
59492;SDS011;45497;43.996;22.876;2022-12-13T00:03:41;12.00;;;7.10;;
59492;SDS011;45497;43.996;22.876;2022-12-13T00:06:07;9.73;;;6.70;;
59492;SDS011;45497;43.996;22.876;2022-12-13T00:08:34;12.18;;;8.00;;
59492;SDS011;45497;43.996;22.876;2022-12-13T00:11:01;11.10;;;7.27;;
59492;SDS011;45497;43.996;22.876;2022-12-13T00:13:29;11.20;;;8.03;;
59492;SDS011;45497;43.996;22.876;2022-12-13T00:15:58;12.00;;;7.90;;
59492;SDS011;45497;43.996;22.876;2022-12-13T00:18:26;12.00;;;8.10;;
59492;SDS011;45497;43.996;22.876;2022-12-13T00:20:52;10.20;;;7.10;;
59492;SDS011;45497;43.996;22.876;2022-12-13T00:23:17;9.53;;;6.57;;
59492;SDS011;45497;43.996;22.876;2022-12-13T00:25:43;9.70;;;7.13;;
59492;SDS011;45497;43.996;22.876;2022-12-13T00:28:09;10.18;;;7.03;;
59492;SDS011;45497;43.996;22.876;2022-12-13T00:30:35;8.80;;;6.43;;
59492;SDS011;45497;43.996;22.876;2022-12-13T00:33:01;10.23;;;6.77;;
59492;SDS011;45497;43.996;22.876;2022-12-13T00:35:26;9.37;;;6.33;;
59492;SDS011;45497;43.996;22.876;2022-12-13T00:37:52;10.27;;;7.10;;
59492;SDS011;45497;43.996;22.876;2022-12-13T00:40:17;8.80;;;6.15;;
59492;SDS011;45497;43.996;22.876;2022-12-13T00:42:42;8.82;;;6.72;;
59492;SDS011;45497;43.996;22.876;2022-12-13T00:45:08;10.60;;;7.07;;
59492;SDS011;45497;43.996;22.876;2022-12-13T00:47:34;11.57;;;7.28;;
59492;SDS011;45497;43.996;22.876;2022-12-13T00:50:01;11.37;;;7.57;;
59492;SDS011;45497;43.996;22.876;2022-12-13T00:52:27;11.45;;;7.35;;
59492;SDS011;45497;43.996;22.876;2022-12-13T00:54:53;10.20;;;7.03;;
59492;SDS011;45497;43.996;22.876;2022-12-13T00:57:20;13.67;;;8.40;;
59492;SDS011;45497;43.996;22.876;2022-12-13T00:59:46;10.20;;;7.37;;
59492;SDS011;45497;43.996;22.876;2022-12-13T01:02:11;11.10;;;7.20;;
59492;SDS011;45497;43.996;22.876;2022-12-13T01:04:37;10.30;;;7.18;;
59492;SDS011;45497;43.996;22.876;2022-12-13T01:07:02;10.38;;;7.57;;
59492;SDS011;45497;43.996;22.876;2022-12-13T01:09:28;11.80;;;7.57;;
59492;SDS011;45497;43.996;22.876;2022-12-13T01:11:57;14.43;;;8.20;;
59492;SDS011;45497;43.996;22.876;2022-12-13T01:14:23;13.23;;;7.78;;
59492;SDS011;45497;43.996;22.876;2022-12-13T01:16:49;13.88;;;8.45;;
59492;SDS011;45497;43.996;22.876;2022-12-13T01:19:15;11.37;;;7.80;;
59492;SDS011;45497;43.996;22.876;2022-12-13T01:21:40;10.63;;;7.43;;
59492;SDS011;45497;43.996;22.876;2022-12-13T01:24:06;13.03;;;8.30;;
59492;SDS011;45497;43.996;22.876;2022-12-13T01:26:32;11.43;;;7.97;;
59492;SDS011;45497;43.996;22.876;2022-12-13T01:28:58;12.23;;;7.32;;
59492;SDS011;45497;43.996;22.876;2022-12-13T01:31:24;13.25;;;8.98;;
59492;SDS011;45497;43.996;22.876;2022-12-13T01:33:50;10.73;;;7.60;;
59492;SDS011;45497;43.996;22.876;2022-12-13T01:36:16;11.87;;;7.80;;
59492;SDS011;45497;43.996;22.876;2022-12-13T01:38:44;13.38;;;8.45;;
59492;SDS011;45497;43.996;22.876;2022-12-13T01:41:14;16.13;;;9.77;;
59492;SDS011;45497;43.996;22.876;2022-12-13T01:46:07;12.73;;;8.33;;
59492;SDS011;45497;43.996;22.876;2022-12-13T01:48:35;11.90;;;7.95;;
59492;SDS011;45497;43.996;22.876;2022-12-13T01:51:04;11.23;;;8.30;;
59492;SDS011;45497;43.996;22.876;2022-12-13T01:53:34;12.45;;;8.50;;
59492;SDS011;45497;43.996;22.876;2022-12-13T01:56:06;11.40;;;7.35;;
59492;SDS011;45497;43.996;22.876;2022-12-13T01:58:36;13.70;;;8.20;;
59492;SDS011;45497;43.996;22.876;2022-12-13T02:01:04;12.57;;;7.88;;
59492;SDS011;45497;43.996;22.876;2022-12-13T02:03:29;12.10;;;8.07;;
59492;SDS011;45497;43.996;22.876;2022-12-13T02:06:09;13.83;;;8.90;;
59492;SDS011;45497;43.996;22.876;2022-12-13T02:08:39;14.20;;;9.40;;
59492;SDS011;45497;43.996;22.876;2022-12-13T02:11:07;13.85;;;10.25;;
59492;SDS011;45497;43.996;22.876;2022-12-13T02:13:33;26.77;;;22.00;;
59492;SDS011;45497;43.996;22.876;2022-12-13T02:24:29;10.68;;;8.13;;
59492;SDS011;45497;43.996;22.876;2022-12-13T02:32:33;11.98;;;8.38;;
59492;SDS011;45497;43.996;22.876;2022-12-13T02:35:07;12.32;;;8.48;;
59492;SDS011;45497;43.996;22.876;2022-12-13T02:40:26;11.23;;;8.52;;
59492;SDS011;45497;43.996;22.876;2022-12-13T02:43:10;11.10;;;7.68;;
59492;SDS011;45497;43.996;22.876;2022-12-13T02:45:44;12.15;;;8.50;;
59492;SDS011;45497;43.996;22.876;2022-12-13T02:48:12;12.32;;;8.07;;
59492;SDS011;45497;43.996;22.876;2022-12-13T02:50:43;10.53;;;8.20;;
59492;SDS011;45497;43.996;22.876;2022-12-13T02:53:10;11.73;;;8.35;;
59492;SDS011;45497;43.996;22.876;2022-12-13T02:55:38;12.50;;;9.40;;
59492;SDS011;45497;43.996;22.876;2022-12-13T02:58:04;11.57;;;7.75;;
59492;SDS011;45497;43.996;22.876;2022-12-13T03:00:36;12.82;;;8.30;;
59492;SDS011;45497;43.996;22.876;2022-12-13T03:18:14;14.43;;;10.57;;
59492;SDS011;45497;43.996;22.876;2022-12-13T03:20:55;10.85;;;8.27;;
59492;SDS011;45497;43.996;22.876;2022-12-13T03:23:24;11.82;;;9.10;;
59492;SDS011;45497;43.996;22.876;2022-12-13T03:25:54;14.10;;;10.50;;
59492;SDS011;45497;43.996;22.876;2022-12-13T03:28:23;14.27;;;10.77;;
59492;SDS011;45497;43.996;22.876;2022-12-13T03:30:49;14.27;;;9.40;;
59492;SDS011;45497;43.996;22.876;2022-12-13T03:33:14;16.00;;;10.93;;
59492;SDS011;45497;43.996;22.876;2022-12-13T03:35:40;14.87;;;11.10;;
59492;SDS011;45497;43.996;22.876;2022-12-13T03:38:07;14.95;;;10.30;;
59492;SDS011;45497;43.996;22.876;2022-12-13T03:40:33;14.73;;;10.00;;
59492;SDS011;45497;43.996;22.876;2022-12-13T03:42:59;14.40;;;10.10;;
59492;SDS011;45497;43.996;22.876;2022-12-13T03:45:26;16.17;;;10.90;;
59492;SDS011;45497;43.996;22.876;2022-12-13T03:47:51;16.10;;;10.00;;
59492;SDS011;45497;43.996;22.876;2022-12-13T03:50:17;14.53;;;9.93;;
59492;SDS011;45497;43.996;22.876;2022-12-13T03:52:42;21.13;;;16.47;;
59492;SDS011;45497;43.996;22.876;2022-12-13T03:55:08;14.32;;;10.40;;
59492;SDS011;45497;43.996;22.876;2022-12-13T03:57:34;16.80;;;10.82;;
59492;SDS011;45497;43.996;22.876;2022-12-13T03:59:59;15.87;;;10.67;;
59492;SDS011;45497;43.996;22.876;2022-12-13T04:02:25;19.20;;;13.35;;
59492;SDS011;45497;43.996;22.876;2022-12-13T04:04:51;14.77;;;10.82;;
59492;SDS011;45497;43.996;22.876;2022-12-13T04:07:17;17.20;;;11.00;;
59492;SDS011;45497;43.996;22.876;2022-12-13T04:09:42;14.17;;;9.30;;
59492;SDS011;45497;43.996;22.876;2022-12-13T04:12:08;18.60;;;13.90;;
59492;SDS011;45497;43.996;22.876;2022-12-13T04:14:52;16.02;;;10.10;;
59492;SDS011;45497;43.996;22.876;2022-12-13T04:17:17;13.40;;;9.20;;
59492;SDS011;45497;43.996;22.876;2022-12-13T04:19:43;16.67;;;11.90;;
59492;SDS011;45497;43.996;22.876;2022-12-13T04:22:08;18.00;;;10.47;;
59492;SDS011;45497;43.996;22.876;2022-12-13T04:24:34;16.17;;;10.77;;
59492;SDS011;45497;43.996;22.876;2022-12-13T04:27:00;14.47;;;10.03;;
59492;SDS011;45497;43.996;22.876;2022-12-13T04:29:25;15.52;;;10.70;;
59492;SDS011;45497;43.996;22.876;2022-12-13T04:31:51;15.27;;;10.70;;
59492;SDS011;45497;43.996;22.876;2022-12-13T04:34:16;16.30;;;11.30;;
59492;SDS011;45497;43.996;22.876;2022-12-13T04:36:42;19.00;;;11.57;;
59492;SDS011;45497;43.996;22.876;2022-12-13T04:39:08;17.33;;;11.82;;
59492;SDS011;45497;43.996;22.876;2022-12-13T04:41:34;19.88;;;14.95;;
59492;SDS011;45497;43.996;22.876;2022-12-13T04:44:03;16.75;;;10.90;;
59492;SDS011;45497;43.996;22.876;2022-12-13T04:46:30;14.95;;;10.10;;
59492;SDS011;45497;43.996;22.876;2022-12-13T04:48:56;13.57;;;10.47;;
59492;SDS011;45497;43.996;22.876;2022-12-13T04:51:21;15.53;;;10.10;;
59492;SDS011;45497;43.996;22.876;2022-12-13T04:53:47;15.43;;;10.67;;
59492;SDS011;45497;43.996;22.876;2022-12-13T04:56:12;13.43;;;9.63;;
59492;SDS011;45497;43.996;22.876;2022-12-13T04:58:38;14.60;;;9.87;;
59492;SDS011;45497;43.996;22.876;2022-12-13T05:01:07;17.63;;;11.25;;
59492;SDS011;45497;43.996;22.876;2022-12-13T05:03:33;14.32;;;9.40;;
59492;SDS011;45497;43.996;22.876;2022-12-13T05:06:06;15.52;;;9.90;;
59492;SDS011;45497;43.996;22.876;2022-12-13T05:08:34;16.92;;;11.73;;
59492;SDS011;45497;43.996;22.876;2022-12-13T05:11:00;20.15;;;14.18;;
59492;SDS011;45497;43.996;22.876;2022-12-13T05:13:26;25.47;;;19.77;;
59492;SDS011;45497;43.996;22.876;2022-12-13T05:15:59;23.73;;;18.20;;
59492;SDS011;45497;43.996;22.876;2022-12-13T05:18:26;20.02;;;14.93;;
59492;SDS011;45497;43.996;22.876;2022-12-13T05:20:52;35.30;;;25.52;;
59492;SDS011;45497;43.996;22.876;2022-12-13T05:23:19;25.10;;;16.75;;
59492;SDS011;45497;43.996;22.876;2022-12-13T05:25:45;16.63;;;13.67;;
59492;SDS011;45497;43.996;22.876;2022-12-13T05:28:11;14.98;;;10.43;;
59492;SDS011;45497;43.996;22.876;2022-12-13T05:30:37;16.20;;;11.17;;
59492;SDS011;45497;43.996;22.876;2022-12-13T05:33:04;19.98;;;15.90;;
59492;SDS011;45497;43.996;22.876;2022-12-13T05:35:29;16.40;;;10.83;;
59492;SDS011;45497;43.996;22.876;2022-12-13T05:37:55;13.43;;;9.95;;
59492;SDS011;45497;43.996;22.876;2022-12-13T05:40:21;17.05;;;10.82;;
59492;SDS011;45497;43.996;22.876;2022-12-13T05:42:47;17.48;;;11.32;;
59492;SDS011;45497;43.996;22.876;2022-12-13T05:45:13;13.45;;;9.48;;
59492;SDS011;45497;43.996;22.876;2022-12-13T05:47:39;13.30;;;9.25;;
59492;SDS011;45497;43.996;22.876;2022-12-13T05:50:05;14.50;;;9.45;;
59492;SDS011;45497;43.996;22.876;2022-12-13T05:52:31;13.88;;;9.30;;
59492;SDS011;45497;43.996;22.876;2022-12-13T05:54:56;13.48;;;9.07;;
59492;SDS011;45497;43.996;22.876;2022-12-13T05:57:22;23.80;;;13.75;;
59492;SDS011;45497;43.996;22.876;2022-12-13T05:59:48;18.30;;;10.70;;
59492;SDS011;45497;43.996;22.876;2022-12-13T06:02:13;19.02;;;12.73;;
59492;SDS011;45497;43.996;22.876;2022-12-13T06:04:39;18.83;;;13.13;;
59492;SDS011;45497;43.996;22.876;2022-12-13T06:07:05;17.93;;;12.53;;
59492;SDS011;45497;43.996;22.876;2022-12-13T06:09:30;17.42;;;11.50;;
59492;SDS011;45497;43.996;22.876;2022-12-13T06:11:56;21.40;;;15.65;;
59492;SDS011;45497;43.996;22.876;2022-12-13T06:14:22;22.57;;;15.13;;
59492;SDS011;45497;43.996;22.876;2022-12-13T06:16:47;28.83;;;18.53;;
59492;SDS011;45497;43.996;22.876;2022-12-13T06:19:13;24.48;;;15.48;;
59492;SDS011;45497;43.996;22.876;2022-12-13T06:21:38;23.70;;;15.15;;
59492;SDS011;45497;43.996;22.876;2022-12-13T06:24:04;18.13;;;12.77;;
59492;SDS011;45497;43.996;22.876;2022-12-13T06:26:31;28.50;;;16.77;;
59492;SDS011;45497;43.996;22.876;2022-12-13T06:28:57;22.08;;;14.77;;
59492;SDS011;45497;43.996;22.876;2022-12-13T06:31:23;29.08;;;16.83;;
59492;SDS011;45497;43.996;22.876;2022-12-13T06:33:49;28.42;;;19.25;;
59492;SDS011;45497;43.996;22.876;2022-12-13T06:36:15;30.23;;;17.40;;
59492;SDS011;45497;43.996;22.876;2022-12-13T06:38:40;42.77;;;22.70;;
59492;SDS011;45497;43.996;22.876;2022-12-13T06:41:10;53.57;;;28.70;;
59492;SDS011;45497;43.996;22.876;2022-12-13T06:43:37;61.93;;;30.10;;
59492;SDS011;45497;43.996;22.876;2022-12-13T06:46:05;50.78;;;28.60;;
59492;SDS011;45497;43.996;22.876;2022-12-13T06:48:30;40.17;;;22.85;;
59492;SDS011;45497;43.996;22.876;2022-12-13T06:51:00;29.05;;;16.85;;
59492;SDS011;45497;43.996;22.876;2022-12-13T06:53:29;19.67;;;12.93;;
59492;SDS011;45497;43.996;22.876;2022-12-13T06:55:55;24.88;;;17.67;;
59492;SDS011;45497;43.996;22.876;2022-12-13T06:58:22;19.27;;;12.85;;
59492;SDS011;45497;43.996;22.876;2022-12-13T07:00:48;20.70;;;13.07;;
59492;SDS011;45497;43.996;22.876;2022-12-13T07:03:13;17.95;;;12.65;;
59492;SDS011;45497;43.996;22.876;2022-12-13T07:05:39;20.98;;;15.57;;
59492;SDS011;45497;43.996;22.876;2022-12-13T07:08:05;20.57;;;14.10;;
59492;SDS011;45497;43.996;22.876;2022-12-13T07:10:30;30.33;;;16.53;;
59492;SDS011;45497;43.996;22.876;2022-12-13T07:12:56;27.10;;;15.75;;
59492;SDS011;45497;43.996;22.876;2022-12-13T07:15:22;32.40;;;20.30;;
59492;SDS011;45497;43.996;22.876;2022-12-13T07:17:48;20.55;;;13.80;;
59492;SDS011;45497;43.996;22.876;2022-12-13T07:20:15;29.67;;;18.33;;
59492;SDS011;45497;43.996;22.876;2022-12-13T07:22:43;31.95;;;19.02;;
59492;SDS011;45497;43.996;22.876;2022-12-13T07:25:08;35.57;;;19.87;;
59492;SDS011;45497;43.996;22.876;2022-12-13T07:27:34;75.00;;;39.30;;
59492;SDS011;45497;43.996;22.876;2022-12-13T07:29:59;23.40;;;14.80;;
59492;SDS011;45497;43.996;22.876;2022-12-13T07:32:25;25.33;;;15.95;;
59492;SDS011;45497;43.996;22.876;2022-12-13T07:34:51;17.10;;;10.90;;
59492;SDS011;45497;43.996;22.876;2022-12-13T07:37:17;17.47;;;12.07;;
59492;SDS011;45497;43.996;22.876;2022-12-13T07:39:42;22.50;;;14.60;;
59492;SDS011;45497;43.996;22.876;2022-12-13T07:42:08;27.53;;;17.00;;
59492;SDS011;45497;43.996;22.876;2022-12-13T07:44:33;18.83;;;12.43;;
59492;SDS011;45497;43.996;22.876;2022-12-13T07:46:58;17.63;;;10.97;;
59492;SDS011;45497;43.996;22.876;2022-12-13T07:49:24;25.23;;;15.53;;
59492;SDS011;45497;43.996;22.876;2022-12-13T07:51:49;27.93;;;16.87;;
59492;SDS011;45497;43.996;22.876;2022-12-13T07:54:15;21.27;;;14.18;;
59492;SDS011;45497;43.996;22.876;2022-12-13T07:56:41;33.45;;;20.83;;
59492;SDS011;45497;43.996;22.876;2022-12-13T07:59:07;22.42;;;13.90;;
59492;SDS011;45497;43.996;22.876;2022-12-13T08:01:34;17.35;;;11.43;;
59492;SDS011;45497;43.996;22.876;2022-12-13T08:04:00;14.80;;;10.02;;
59492;SDS011;45497;43.996;22.876;2022-12-13T08:06:26;18.42;;;12.15;;
59492;SDS011;45497;43.996;22.876;2022-12-13T08:08:55;14.33;;;10.13;;
59492;SDS011;45497;43.996;22.876;2022-12-13T08:11:21;12.80;;;9.00;;
59492;SDS011;45497;43.996;22.876;2022-12-13T08:13:46;16.73;;;11.32;;
59492;SDS011;45497;43.996;22.876;2022-12-13T08:16:12;16.92;;;10.73;;
59492;SDS011;45497;43.996;22.876;2022-12-13T08:18:42;15.88;;;10.35;;
59492;SDS011;45497;43.996;22.876;2022-12-13T08:21:08;13.93;;;9.07;;
59492;SDS011;45497;43.996;22.876;2022-12-13T08:23:35;14.87;;;9.10;;
59492;SDS011;45497;43.996;22.876;2022-12-13T08:26:05;15.85;;;9.77;;
59492;SDS011;45497;43.996;22.876;2022-12-13T08:31:07;19.23;;;11.27;;
59492;SDS011;45497;43.996;22.876;2022-12-13T08:33:38;16.67;;;11.02;;
59492;SDS011;45497;43.996;22.876;2022-12-13T08:36:09;13.30;;;8.82;;
59492;SDS011;45497;43.996;22.876;2022-12-13T08:38:36;15.85;;;10.82;;
59492;SDS011;45497;43.996;22.876;2022-12-13T08:41:02;18.73;;;11.60;;
59492;SDS011;45497;43.996;22.876;2022-12-13T08:43:28;14.50;;;9.82;;
59492;SDS011;45497;43.996;22.876;2022-12-13T08:45:53;22.43;;;12.73;;
59492;SDS011;45497;43.996;22.876;2022-12-13T08:48:19;20.67;;;12.57;;
59492;SDS011;45497;43.996;22.876;2022-12-13T08:50:44;19.93;;;11.77;;
59492;SDS011;45497;43.996;22.876;2022-12-13T08:53:10;12.57;;;8.47;;
59492;SDS011;45497;43.996;22.876;2022-12-13T08:55:35;12.07;;;8.70;;
59492;SDS011;45497;43.996;22.876;2022-12-13T08:58:04;11.90;;;8.07;;
59492;SDS011;45497;43.996;22.876;2022-12-13T09:00:36;11.63;;;8.57;;
59492;SDS011;45497;43.996;22.876;2022-12-13T09:03:04;12.82;;;8.20;;
59492;SDS011;45497;43.996;22.876;2022-12-13T09:05:31;11.30;;;8.48;;
59492;SDS011;45497;43.996;22.876;2022-12-13T09:07:57;13.23;;;8.63;;
59492;SDS011;45497;43.996;22.876;2022-12-13T09:10:23;11.38;;;7.93;;
59492;SDS011;45497;43.996;22.876;2022-12-13T09:12:49;15.77;;;9.40;;
59492;SDS011;45497;43.996;22.876;2022-12-13T09:15:15;13.63;;;9.10;;
59492;SDS011;45497;43.996;22.876;2022-12-13T09:17:42;11.27;;;7.30;;
59492;SDS011;45497;43.996;22.876;2022-12-13T09:20:08;10.27;;;7.70;;
59492;SDS011;45497;43.996;22.876;2022-12-13T09:22:36;14.27;;;9.65;;
59492;SDS011;45497;43.996;22.876;2022-12-13T09:25:03;15.80;;;10.20;;
59492;SDS011;45497;43.996;22.876;2022-12-13T09:27:29;13.33;;;8.50;;
59492;SDS011;45497;43.996;22.876;2022-12-13T09:29:56;21.95;;;14.52;;
59492;SDS011;45497;43.996;22.876;2022-12-13T09:32:22;11.80;;;6.95;;
59492;SDS011;45497;43.996;22.876;2022-12-13T09:34:49;20.10;;;11.60;;
59492;SDS011;45497;43.996;22.876;2022-12-13T09:37:15;16.43;;;10.53;;
59492;SDS011;45497;43.996;22.876;2022-12-13T09:39:41;17.77;;;11.40;;
59492;SDS011;45497;43.996;22.876;2022-12-13T09:42:12;18.27;;;11.60;;
59492;SDS011;45497;43.996;22.876;2022-12-13T09:44:48;12.07;;;8.18;;
59492;SDS011;45497;43.996;22.876;2022-12-13T09:47:38;16.45;;;11.43;;
59492;SDS011;45497;43.996;22.876;2022-12-13T09:50:07;12.38;;;8.20;;
59492;SDS011;45497;43.996;22.876;2022-12-13T09:52:38;21.67;;;14.07;;
59492;SDS011;45497;43.996;22.876;2022-12-13T09:57:53;37.22;;;24.60;;
59492;SDS011;45497;43.996;22.876;2022-12-13T10:00:23;20.60;;;11.75;;
59492;SDS011;45497;43.996;22.876;2022-12-13T10:02:52;36.70;;;21.98;;
59492;SDS011;45497;43.996;22.876;2022-12-13T10:07:49;16.27;;;9.98;;
59492;SDS011;45497;43.996;22.876;2022-12-13T10:10:18;58.83;;;27.02;;
59492;SDS011;45497;43.996;22.876;2022-12-13T10:12:44;10.63;;;7.07;;
59492;SDS011;45497;43.996;22.876;2022-12-13T10:15:15;16.27;;;9.00;;
59492;SDS011;45497;43.996;22.876;2022-12-13T10:17:43;35.00;;;17.73;;
59492;SDS011;45497;43.996;22.876;2022-12-13T10:20:19;14.07;;;9.10;;
59492;SDS011;45497;43.996;22.876;2022-12-13T10:22:46;15.67;;;9.27;;
59492;SDS011;45497;43.996;22.876;2022-12-13T10:28:32;13.15;;;8.55;;
59492;SDS011;45497;43.996;22.876;2022-12-13T10:30:59;14.98;;;10.10;;
59492;SDS011;45497;43.996;22.876;2022-12-13T10:38:42;35.08;;;18.45;;
59492;SDS011;45497;43.996;22.876;2022-12-13T10:44:13;68.82;;;35.67;;
59492;SDS011;45497;43.996;22.876;2022-12-13T10:46:40;12.57;;;9.45;;
59492;SDS011;45497;43.996;22.876;2022-12-13T10:49:15;12.38;;;8.52;;
59492;SDS011;45497;43.996;22.876;2022-12-13T10:51:46;15.50;;;10.77;;
59492;SDS011;45497;43.996;22.876;2022-12-13T10:54:16;13.93;;;8.25;;
59492;SDS011;45497;43.996;22.876;2022-12-13T10:56:51;14.40;;;8.55;;
59492;SDS011;45497;43.996;22.876;2022-12-13T10:59:27;8.55;;;6.00;;
59492;SDS011;45497;43.996;22.876;2022-12-13T11:01:56;18.13;;;9.55;;
59492;SDS011;45497;43.996;22.876;2022-12-13T11:04:30;14.48;;;9.25;;
59492;SDS011;45497;43.996;22.876;2022-12-13T11:07:05;15.13;;;10.43;;
59492;SDS011;45497;43.996;22.876;2022-12-13T11:09:54;23.07;;;12.67;;
59492;SDS011;45497;43.996;22.876;2022-12-13T11:12:21;16.10;;;12.18;;
59492;SDS011;45497;43.996;22.876;2022-12-13T11:14:56;10.18;;;6.97;;
59492;SDS011;45497;43.996;22.876;2022-12-13T11:17:25;13.23;;;8.10;;
59492;SDS011;45497;43.996;22.876;2022-12-13T11:20:35;10.77;;;7.30;;
59492;SDS011;45497;43.996;22.876;2022-12-13T11:22:45;18.25;;;10.43;;
59492;SDS011;45497;43.996;22.876;2022-12-13T11:25:24;24.25;;;15.27;;
59492;SDS011;45497;43.996;22.876;2022-12-13T11:30:42;15.20;;;8.90;;
59492;SDS011;45497;43.996;22.876;2022-12-13T11:34:03;12.43;;;9.68;;
59492;SDS011;45497;43.996;22.876;2022-12-13T11:36:30;9.88;;;7.82;;
59492;SDS011;45497;43.996;22.876;2022-12-13T11:41:41;7.68;;;6.05;;
59492;SDS011;45497;43.996;22.876;2022-12-13T11:47:10;10.48;;;9.02;;
59492;SDS011;45497;43.996;22.876;2022-12-13T11:49:43;9.07;;;6.10;;
59492;SDS011;45497;43.996;22.876;2022-12-13T11:52:15;11.05;;;7.15;;
59492;SDS011;45497;43.996;22.876;2022-12-13T11:54:54;19.67;;;11.77;;
59492;SDS011;45497;43.996;22.876;2022-12-13T11:57:27;9.43;;;6.05;;
59492;SDS011;45497;43.996;22.876;2022-12-13T12:05:50;12.85;;;7.82;;
59492;SDS011;45497;43.996;22.876;2022-12-13T12:11:02;22.15;;;10.73;;
59492;SDS011;45497;43.996;22.876;2022-12-13T12:13:38;34.58;;;21.73;;
59492;SDS011;45497;43.996;22.876;2022-12-13T12:19:14;11.65;;;6.97;;
59492;SDS011;45497;43.996;22.876;2022-12-13T12:24:39;13.35;;;7.95;;
59492;SDS011;45497;43.996;22.876;2022-12-13T12:41:29;16.63;;;9.90;;
59492;SDS011;45497;43.996;22.876;2022-12-13T12:44:28;11.27;;;6.80;;
59492;SDS011;45497;43.996;22.876;2022-12-13T12:49:40;16.65;;;9.98;;
59492;SDS011;45497;43.996;22.876;2022-12-13T12:58:12;23.98;;;13.20;;
59492;SDS011;45497;43.996;22.876;2022-12-13T13:00:53;6.93;;;5.30;;
59492;SDS011;45497;43.996;22.876;2022-12-13T13:03:24;11.30;;;6.80;;
59492;SDS011;45497;43.996;22.876;2022-12-13T13:05:55;11.50;;;7.60;;
59492;SDS011;45497;43.996;22.876;2022-12-13T13:08:30;11.98;;;7.45;;
59492;SDS011;45497;43.996;22.876;2022-12-13T13:11:04;9.45;;;6.68;;
59492;SDS011;45497;43.996;22.876;2022-12-13T13:16:00;9.63;;;6.82;;
59492;SDS011;45497;43.996;22.876;2022-12-13T13:18:45;12.13;;;8.20;;
59492;SDS011;45497;43.996;22.876;2022-12-13T13:23:47;10.35;;;7.72;;
59492;SDS011;45497;43.996;22.876;2022-12-13T13:26:31;9.02;;;6.47;;
59492;SDS011;45497;43.996;22.876;2022-12-13T13:34:39;10.05;;;6.80;;
59492;SDS011;45497;43.996;22.876;2022-12-13T13:42:29;42.87;;;22.33;;
59492;SDS011;45497;43.996;22.876;2022-12-13T13:48:09;14.75;;;8.15;;
59492;SDS011;45497;43.996;22.876;2022-12-13T13:50:48;13.45;;;7.43;;
59492;SDS011;45497;43.996;22.876;2022-12-13T13:53:30;7.72;;;5.55;;
59492;SDS011;45497;43.996;22.876;2022-12-13T13:56:15;27.30;;;12.40;;
59492;SDS011;45497;43.996;22.876;2022-12-13T14:12:39;10.83;;;7.60;;
59492;SDS011;45497;43.996;22.876;2022-12-13T14:20:35;15.80;;;11.18;;
59492;SDS011;45497;43.996;22.876;2022-12-13T14:28:31;13.02;;;9.88;;
59492;SDS011;45497;43.996;22.876;2022-12-13T14:31:17;15.20;;;10.70;;
59492;SDS011;45497;43.996;22.876;2022-12-13T14:34:02;72.38;;;42.92;;
59492;SDS011;45497;43.996;22.876;2022-12-13T14:36:29;104.95;;;62.70;;
59492;SDS011;45497;43.996;22.876;2022-12-13T14:39:03;24.90;;;16.08;;
59492;SDS011;45497;43.996;22.876;2022-12-13T14:41:31;60.43;;;33.10;;
59492;SDS011;45497;43.996;22.876;2022-12-13T14:44:19;40.00;;;23.10;;
59492;SDS011;45497;43.996;22.876;2022-12-13T14:46:53;56.05;;;32.55;;
59492;SDS011;45497;43.996;22.876;2022-12-13T14:49:21;37.42;;;23.45;;
59492;SDS011;45497;43.996;22.876;2022-12-13T14:51:49;37.53;;;22.85;;
59492;SDS011;45497;43.996;22.876;2022-12-13T14:54:25;49.70;;;27.23;;
59492;SDS011;45497;43.996;22.876;2022-12-13T14:56:58;48.83;;;28.83;;
59492;SDS011;45497;43.996;22.876;2022-12-13T14:59:25;40.80;;;25.85;;
59492;SDS011;45497;43.996;22.876;2022-12-13T15:01:52;211.02;;;94.60;;
59492;SDS011;45497;43.996;22.876;2022-12-13T15:06:46;45.87;;;23.67;;
59492;SDS011;45497;43.996;22.876;2022-12-13T15:09:18;41.00;;;23.85;;
59492;SDS011;45497;43.996;22.876;2022-12-13T15:11:44;36.05;;;20.23;;
59492;SDS011;45497;43.996;22.876;2022-12-13T15:14:14;34.38;;;21.85;;
59492;SDS011;45497;43.996;22.876;2022-12-13T15:16:46;40.13;;;26.90;;
59492;SDS011;45497;43.996;22.876;2022-12-13T15:19:18;54.45;;;35.60;;
59492;SDS011;45497;43.996;22.876;2022-12-13T15:21:53;58.67;;;37.17;;
59492;SDS011;45497;43.996;22.876;2022-12-13T15:24:24;64.27;;;38.77;;
59492;SDS011;45497;43.996;22.876;2022-12-13T15:26:54;48.83;;;29.50;;
59492;SDS011;45497;43.996;22.876;2022-12-13T15:29:21;65.97;;;42.65;;
59492;SDS011;45497;43.996;22.876;2022-12-13T15:31:50;83.43;;;57.65;;
59492;SDS011;45497;43.996;22.876;2022-12-13T15:36:53;122.75;;;66.72;;
59492;SDS011;45497;43.996;22.876;2022-12-13T15:39:20;71.25;;;45.83;;
59492;SDS011;45497;43.996;22.876;2022-12-13T15:41:48;58.10;;;37.65;;
59492;SDS011;45497;43.996;22.876;2022-12-13T15:44:20;58.10;;;36.03;;
59492;SDS011;45497;43.996;22.876;2022-12-13T15:46:49;50.33;;;33.72;;
59492;SDS011;45497;43.996;22.876;2022-12-13T15:51:58;46.22;;;31.38;;
59492;SDS011;45497;43.996;22.876;2022-12-13T15:54:26;46.47;;;29.80;;
59492;SDS011;45497;43.996;22.876;2022-12-13T15:59:45;46.47;;;29.80;;
59492;SDS011;45497;43.996;22.876;2022-12-13T16:02:15;62.03;;;36.80;;
59492;SDS011;45497;43.996;22.876;2022-12-13T16:04:44;42.60;;;28.20;;
59492;SDS011;45497;43.996;22.876;2022-12-13T16:07:31;38.20;;;27.35;;
59492;SDS011;45497;43.996;22.876;2022-12-13T16:10:04;73.47;;;34.08;;
59492;SDS011;45497;43.996;22.876;2022-12-13T16:15:14;104.65;;;57.33;;
59492;SDS011;45497;43.996;22.876;2022-12-13T16:17:44;101.47;;;61.47;;
59492;SDS011;45497;43.996;22.876;2022-12-13T16:20:17;111.28;;;72.72;;
59492;SDS011;45497;43.996;22.876;2022-12-13T16:22:44;82.60;;;53.92;;
59492;SDS011;45497;43.996;22.876;2022-12-13T16:25:11;87.90;;;55.72;;
59492;SDS011;45497;43.996;22.876;2022-12-13T16:27:38;86.85;;;54.55;;
59492;SDS011;45497;43.996;22.876;2022-12-13T16:30:24;100.90;;;57.80;;
59492;SDS011;45497;43.996;22.876;2022-12-13T16:32:51;79.90;;;44.67;;
59492;SDS011;45497;43.996;22.876;2022-12-13T16:35:18;59.15;;;38.78;;
59492;SDS011;45497;43.996;22.876;2022-12-13T16:37:44;87.77;;;53.17;;
59492;SDS011;45497;43.996;22.876;2022-12-13T16:42:44;49.80;;;34.60;;
59492;SDS011;45497;43.996;22.876;2022-12-13T16:45:13;101.63;;;55.10;;
59492;SDS011;45497;43.996;22.876;2022-12-13T16:47:39;89.90;;;47.45;;
59492;SDS011;45497;43.996;22.876;2022-12-13T16:50:08;98.80;;;74.17;;
59492;SDS011;45497;43.996;22.876;2022-12-13T16:52:38;58.35;;;42.03;;
59492;SDS011;45497;43.996;22.876;2022-12-13T16:55:04;54.28;;;32.22;;
59492;SDS011;45497;43.996;22.876;2022-12-13T16:57:30;57.87;;;30.80;;
59492;SDS011;45497;43.996;22.876;2022-12-13T16:59:55;74.80;;;47.47;;
59492;SDS011;45497;43.996;22.876;2022-12-13T17:02:22;68.60;;;40.53;;